createdAt,value
2019-02-08T00:00:48.523Z,47.62
2019-02-08T00:03:16.674Z,53.00
2019-02-08T00:05:44.847Z,41.55
2019-02-08T00:08:13.030Z,39.85
2019-02-08T00:10:41.480Z,43.38
2019-02-08T00:13:09.669Z,40.65
2019-02-08T00:15:38.327Z,42.58
2019-02-08T00:18:06.555Z,47.03
2019-02-08T00:20:35.109Z,47.27
2019-02-08T00:23:03.303Z,42.83
2019-02-08T00:25:31.888Z,43.73
2019-02-08T00:28:00.051Z,38.90
2019-02-08T00:30:28.241Z,37.42
2019-02-08T00:32:56.386Z,38.42
2019-02-08T00:35:24.576Z,36.98
2019-02-08T00:37:53.126Z,36.45
2019-02-08T00:40:21.323Z,37.60
2019-02-08T00:42:49.821Z,35.20
2019-02-08T00:45:18.362Z,34.13
2019-02-08T00:47:46.559Z,37.42
2019-02-08T00:50:16.974Z,31.87
2019-02-08T00:52:45.110Z,37.47
2019-02-08T00:55:13.824Z,34.30
2019-02-08T00:57:43.339Z,35.55
2019-02-08T01:00:11.677Z,36.95
2019-02-08T01:02:40.853Z,34.03
2019-02-08T01:05:10.761Z,33.38
2019-02-08T01:07:39.321Z,36.20
2019-02-08T01:10:10.453Z,32.83
2019-02-08T01:12:38.638Z,34.75
2019-02-08T01:15:07.706Z,35.73
2019-02-08T01:17:35.903Z,36.75
2019-02-08T01:20:05.513Z,33.15
2019-02-08T01:22:33.673Z,30.90
2019-02-08T01:25:01.877Z,31.70
2019-02-08T01:27:30.302Z,33.42
2019-02-08T01:29:58.507Z,32.30
2019-02-08T01:32:26.676Z,33.98
2019-02-08T01:34:56.203Z,33.25
2019-02-08T01:37:24.360Z,33.18
2019-02-08T01:39:53.558Z,35.05
2019-02-08T01:42:21.731Z,30.68
2019-02-08T01:44:49.896Z,33.30
2019-02-08T01:47:18.377Z,34.08
2019-02-08T01:49:46.843Z,30.60
2019-02-08T01:52:15.428Z,31.87
2019-02-08T01:54:43.535Z,29.98
2019-02-08T01:57:12.437Z,28.07
2019-02-08T01:59:40.597Z,30.48
2019-02-08T02:02:08.761Z,29.70
2019-02-08T02:04:37.279Z,33.65
2019-02-08T02:07:05.677Z,29.07
2019-02-08T02:09:33.905Z,31.02
2019-02-08T02:12:02.064Z,29.90
2019-02-08T02:14:30.522Z,28.55
2019-02-08T02:17:00.655Z,29.72
2019-02-08T02:19:29.323Z,26.50
2019-02-08T02:21:57.783Z,28.73
2019-02-08T02:24:26.011Z,27.60
2019-02-08T02:26:54.178Z,28.95
2019-02-08T02:29:22.646Z,29.42
2019-02-08T02:31:50.819Z,27.65
2019-02-08T02:34:18.995Z,25.60
2019-02-08T02:36:47.168Z,27.60
2019-02-08T02:39:15.361Z,27.45
2019-02-08T02:42:09.507Z,26.55
2019-02-08T02:44:36.090Z,26.95
2019-02-08T02:47:04.293Z,28.73
2019-02-08T02:49:32.801Z,28.77
2019-02-08T02:52:00.993Z,29.02
2019-02-08T02:54:29.173Z,26.65
2019-02-08T02:56:57.290Z,26.65
2019-02-08T02:59:25.422Z,25.82
2019-02-08T03:01:53.601Z,27.98
2019-02-08T03:04:21.759Z,24.35
2019-02-08T03:06:50.261Z,25.88
2019-02-08T03:09:18.667Z,24.00
2019-02-08T03:11:46.788Z,24.72
2019-02-08T03:14:14.966Z,22.10
2019-02-08T03:16:43.148Z,22.42
2019-02-08T03:19:12.612Z,21.75
2019-02-08T03:21:40.818Z,21.55
2019-02-08T03:24:13.008Z,21.75
2019-02-08T03:26:37.465Z,21.90
2019-02-08T03:29:06.670Z,22.60
2019-02-08T03:31:35.232Z,25.52
2019-02-08T03:34:03.416Z,23.75
2019-02-08T03:36:32.326Z,24.23
2019-02-08T03:39:00.789Z,24.00
2019-02-08T03:41:29.195Z,23.67
2019-02-08T03:43:57.349Z,21.53
2019-02-08T03:46:25.575Z,20.25
2019-02-08T03:48:53.693Z,20.90
2019-02-08T03:51:21.869Z,20.37
2019-02-08T03:53:50.032Z,20.82
2019-02-08T03:56:18.590Z,20.50
2019-02-08T03:58:48.971Z,20.57
2019-02-08T04:01:18.174Z,20.93
2019-02-08T04:03:46.649Z,22.80
2019-02-08T04:06:14.807Z,20.25
2019-02-08T04:08:43.018Z,19.87
2019-02-08T04:11:11.124Z,22.35
2019-02-08T04:13:39.589Z,21.40
2019-02-08T04:16:07.818Z,21.52
2019-02-08T04:18:35.965Z,21.60
2019-02-08T04:21:04.149Z,18.52
2019-02-08T04:23:32.325Z,18.45
2019-02-08T04:26:01.518Z,18.10
2019-02-08T04:28:29.950Z,18.85
2019-02-08T04:31:07.282Z,18.52
2019-02-08T04:33:36.470Z,17.62
2019-02-08T04:36:04.942Z,17.15
2019-02-08T04:38:33.127Z,18.37
2019-02-08T04:41:01.313Z,19.98
2019-02-08T04:43:29.855Z,19.67
2019-02-08T04:45:58.351Z,18.48
2019-02-08T04:48:26.572Z,18.67
2019-02-08T04:50:54.981Z,18.52
2019-02-08T04:53:23.218Z,19.37
2019-02-08T04:55:51.659Z,18.55
2019-02-08T04:58:19.898Z,18.23
2019-02-08T05:00:48.033Z,16.60
2019-02-08T05:03:16.588Z,17.55
2019-02-08T05:05:45.446Z,16.93
2019-02-08T05:08:32.995Z,17.05
2019-02-08T05:11:01.198Z,16.90
2019-02-08T05:13:29.763Z,16.97
2019-02-08T05:15:57.954Z,17.30
2019-02-08T05:18:26.129Z,17.67
2019-02-08T05:20:54.318Z,22.67
2019-02-08T05:23:22.470Z,24.65
2019-02-08T05:25:50.647Z,21.57
2019-02-08T05:28:19.122Z,20.90
2019-02-08T05:30:47.708Z,18.15
2019-02-08T05:33:16.002Z,19.77
2019-02-08T05:35:44.158Z,20.20
2019-02-08T05:38:13.050Z,20.02
2019-02-08T05:40:41.576Z,21.25
2019-02-08T05:43:10.418Z,20.80
2019-02-08T05:45:38.590Z,20.50
2019-02-08T05:48:06.777Z,19.80
2019-02-08T05:50:34.932Z,19.75
2019-02-08T05:53:03.520Z,18.90
2019-02-08T05:55:31.693Z,18.60
2019-02-08T05:58:00.159Z,19.98
2019-02-08T06:00:36.259Z,18.93
2019-02-08T06:03:04.730Z,20.55
2019-02-08T06:05:33.912Z,20.35
2019-02-08T06:08:02.090Z,19.12
2019-02-08T06:10:30.262Z,20.88
2019-02-08T06:12:58.827Z,20.72
2019-02-08T06:15:27.304Z,21.17
2019-02-08T06:17:55.763Z,21.68
2019-02-08T06:20:24.012Z,19.37
2019-02-08T06:22:52.150Z,21.35
2019-02-08T06:25:20.505Z,20.60
2019-02-08T06:27:48.785Z,23.12
2019-02-08T06:30:18.866Z,21.07
2019-02-08T06:32:47.097Z,21.10
2019-02-08T06:35:16.735Z,23.27
2019-02-08T06:37:45.203Z,23.05
2019-02-08T06:40:15.401Z,20.75
2019-02-08T06:42:44.258Z,28.70
2019-02-08T06:45:14.444Z,22.85
2019-02-08T06:47:42.597Z,22.13
2019-02-08T06:50:12.278Z,21.42
2019-02-08T06:52:40.462Z,22.20
2019-02-08T06:55:10.854Z,22.50
2019-02-08T06:57:43.982Z,23.02
2019-02-08T07:00:22.260Z,22.17
2019-02-08T07:03:12.889Z,19.65
2019-02-08T07:05:51.049Z,24.77
2019-02-08T07:08:29.345Z,23.18
2019-02-08T07:11:22.567Z,24.20
2019-02-08T07:14:08.339Z,24.35
2019-02-08T07:16:52.740Z,24.85
2019-02-08T07:19:46.308Z,22.60
2019-02-08T07:22:37.040Z,25.05
2019-02-08T07:25:25.682Z,24.10
2019-02-08T07:28:16.010Z,28.15
2019-02-08T07:31:04.334Z,26.17
2019-02-08T07:33:50.978Z,26.68
2019-02-08T07:36:38.696Z,30.48
2019-02-08T07:39:25.069Z,26.37
2019-02-08T07:42:02.638Z,26.50
2019-02-08T07:44:39.198Z,26.85
2019-02-08T07:47:25.344Z,27.98
2019-02-08T07:50:12.741Z,27.20
2019-02-08T07:52:59.664Z,29.52
2019-02-08T07:55:53.132Z,28.65
2019-02-08T07:58:52.325Z,27.50
2019-02-08T08:01:35.433Z,28.30
2019-02-08T08:04:19.120Z,28.20
2019-02-08T08:07:15.378Z,27.13
2019-02-08T08:09:50.038Z,26.45
2019-02-08T08:12:32.394Z,26.52
2019-02-08T08:15:10.024Z,25.23
2019-02-08T08:17:59.951Z,24.80
2019-02-08T08:20:44.659Z,23.95
2019-02-08T08:23:29.152Z,22.73
2019-02-08T08:26:18.792Z,23.18
2019-02-08T08:29:18.290Z,20.62
2019-02-08T08:31:53.853Z,19.37
2019-02-08T08:34:52.453Z,21.15
2019-02-08T08:37:51.499Z,20.77
2019-02-08T08:41:04.786Z,19.67
2019-02-08T08:44:14.689Z,21.68
2019-02-08T08:47:26.853Z,21.05
2019-02-08T08:50:22.593Z,22.27
2019-02-08T08:53:29.680Z,21.10
2019-02-08T08:56:12.741Z,21.97
2019-02-08T08:59:14.166Z,20.52
2019-02-08T09:02:18.352Z,21.68
2019-02-08T09:05:19.483Z,22.45
2019-02-08T09:08:30.200Z,23.20
2019-02-08T09:11:49.377Z,22.77
2019-02-08T09:15:01.177Z,21.87
2019-02-08T09:17:53.625Z,19.65
2019-02-08T09:21:00.577Z,19.67
2019-02-08T09:24:23.818Z,18.05
2019-02-08T09:27:39.099Z,19.52
2019-02-08T09:30:28.729Z,18.52
2019-02-08T09:33:47.864Z,19.42
2019-02-08T09:36:58.751Z,18.27
2019-02-08T09:40:26.112Z,18.27
2019-02-08T09:43:56.986Z,16.52
2019-02-08T09:46:51.649Z,15.03
2019-02-08T09:49:57.095Z,16.10
2019-02-08T09:53:01.389Z,15.80
2019-02-08T09:56:02.462Z,16.20
2019-02-08T09:59:08.049Z,14.70
2019-02-08T10:02:27.269Z,15.08
2019-02-08T10:05:39.021Z,13.48
2019-02-08T10:11:45.584Z,11.12
2019-02-08T10:14:40.021Z,10.75
2019-02-08T10:17:51.890Z,9.83
2019-02-08T10:20:58.296Z,10.53
2019-02-08T10:24:00.602Z,10.18
2019-02-08T10:27:15.302Z,9.38
2019-02-08T10:30:29.011Z,9.60
2019-02-08T10:33:52.374Z,9.28
2019-02-08T10:37:26.498Z,9.08
2019-02-08T10:40:29.671Z,8.78
2019-02-08T10:43:29.808Z,9.98
2019-02-08T10:46:44.571Z,8.93
2019-02-08T10:49:38.451Z,8.63
2019-02-08T10:52:53.176Z,9.18
2019-02-08T10:55:47.700Z,8.78
2019-02-08T10:58:53.318Z,10.30
2019-02-08T11:02:05.454Z,8.40
2019-02-08T11:05:24.596Z,9.45
2019-02-08T11:08:34.594Z,8.40
2019-02-08T11:11:36.668Z,8.93
2019-02-08T11:14:41.794Z,8.23
2019-02-08T11:18:10.095Z,7.60
2019-02-08T11:20:39.026Z,10.18
2019-02-08T11:23:07.135Z,7.83
2019-02-08T11:25:35.275Z,7.75
2019-02-08T11:28:03.491Z,7.78
2019-02-08T11:30:31.657Z,7.55
2019-02-08T11:32:59.841Z,7.03
2019-02-08T11:35:28.284Z,7.45
2019-02-08T11:37:57.123Z,8.25
2019-02-08T11:40:26.202Z,7.33
2019-02-08T11:42:54.696Z,8.13
2019-02-08T11:45:23.957Z,7.50
2019-02-08T11:47:52.158Z,7.37
2019-02-08T11:50:21.502Z,8.00
2019-02-08T11:52:51.677Z,8.13
2019-02-08T11:55:19.842Z,7.22
2019-02-08T11:57:59.792Z,7.55
2019-02-08T12:00:40.100Z,7.78
2019-02-08T12:03:08.343Z,7.70
2019-02-08T12:05:36.497Z,7.70
2019-02-08T12:08:04.965Z,7.58
2019-02-08T12:10:33.165Z,8.40
2019-02-08T12:13:01.339Z,8.23
2019-02-08T12:15:29.495Z,6.87
2019-02-08T12:17:57.675Z,7.20
2019-02-08T12:20:25.849Z,6.97
2019-02-08T12:22:54.015Z,6.75
2019-02-08T12:25:22.244Z,7.42
2019-02-08T12:27:50.404Z,6.03
2019-02-08T12:30:22.222Z,6.33
2019-02-08T12:32:51.407Z,7.03
2019-02-08T12:35:19.592Z,6.95
2019-02-08T12:37:47.771Z,6.53
2019-02-08T12:40:16.608Z,8.05
2019-02-08T12:42:45.061Z,7.45
2019-02-08T12:45:13.356Z,6.87
2019-02-08T12:47:41.796Z,7.30
2019-02-08T12:50:11.092Z,7.35
2019-02-08T12:52:39.289Z,7.30
2019-02-08T12:55:08.640Z,6.90
2019-02-08T12:57:38.817Z,6.95
2019-02-08T13:00:10.189Z,7.28
2019-02-08T13:02:38.308Z,8.08
2019-02-08T13:05:07.696Z,6.87
2019-02-08T13:07:36.155Z,7.17
2019-02-08T13:10:06.202Z,6.67
2019-02-08T13:12:34.436Z,7.55
2019-02-08T13:15:02.656Z,6.72
2019-02-08T13:17:31.835Z,6.40
2019-02-08T13:20:00.231Z,7.15
2019-02-08T13:22:34.145Z,7.00
2019-02-08T13:25:03.427Z,6.87
2019-02-08T13:27:32.238Z,6.60
2019-02-08T13:30:00.542Z,6.78
2019-02-08T13:32:28.697Z,6.70
2019-02-08T13:34:56.855Z,7.28
2019-02-08T13:37:25.041Z,7.58
2019-02-08T13:39:53.201Z,7.47
2019-02-08T13:42:23.430Z,7.57
2019-02-08T13:44:51.988Z,7.60
2019-02-08T13:47:20.192Z,7.53
2019-02-08T13:49:48.784Z,7.63
2019-02-08T13:52:16.929Z,7.37
2019-02-08T13:54:45.103Z,6.92
2019-02-08T13:57:13.291Z,7.05
2019-02-08T13:59:41.483Z,6.55
2019-02-08T14:02:09.639Z,6.62
2019-02-08T14:04:38.739Z,7.03
2019-02-08T14:07:08.177Z,6.30
2019-02-08T14:09:36.729Z,6.67
2019-02-08T14:12:05.287Z,7.35
2019-02-08T14:14:34.494Z,6.27
2019-02-08T14:17:02.665Z,5.83
2019-02-08T14:19:30.829Z,7.67
2019-02-08T14:21:59.015Z,7.45
2019-02-08T14:24:27.267Z,5.17
2019-02-08T14:26:55.491Z,5.97
2019-02-08T14:29:23.627Z,5.77
2019-02-08T14:31:53.074Z,5.55
2019-02-08T14:34:20.244Z,4.67
2019-02-08T14:36:49.712Z,5.70
2019-02-08T14:39:17.856Z,5.55
2019-02-08T14:41:46.034Z,5.63
2019-02-08T14:44:14.199Z,5.50
2019-02-08T14:46:43.437Z,6.25
2019-02-08T14:49:11.582Z,6.58
2019-02-08T14:51:39.788Z,6.42
2019-02-08T14:54:07.935Z,6.58
2019-02-08T14:56:36.104Z,5.33
2019-02-08T14:59:04.266Z,5.50
2019-02-08T15:01:36.705Z,5.55
2019-02-08T15:04:04.955Z,5.58
2019-02-08T15:06:33.093Z,6.33
2019-02-08T15:09:01.258Z,6.28
2019-02-08T15:11:30.456Z,5.53
2019-02-08T15:13:58.662Z,14.38
2019-02-08T15:16:26.817Z,14.43
2019-02-08T15:18:55.290Z,6.00
2019-02-08T15:21:23.851Z,5.58
2019-02-08T15:23:52.068Z,5.75
2019-02-08T15:26:20.266Z,5.08
2019-02-08T15:28:48.404Z,5.17
2019-02-08T15:31:16.562Z,6.45
2019-02-08T15:33:44.748Z,5.28
2019-02-08T15:36:12.909Z,5.58
2019-02-08T15:38:41.392Z,5.30
2019-02-08T15:41:10.371Z,5.12
2019-02-08T15:43:38.572Z,5.33
2019-02-08T15:46:06.885Z,5.05
2019-02-08T15:48:35.124Z,4.70
2019-02-08T15:51:03.288Z,5.03
2019-02-08T15:53:33.770Z,5.15
2019-02-08T15:56:15.609Z,5.40
2019-02-08T15:58:49.616Z,5.92
2019-02-08T16:01:17.827Z,4.55
2019-02-08T16:03:45.971Z,4.70
2019-02-08T16:06:14.141Z,5.08
2019-02-08T16:08:42.333Z,5.40
2019-02-08T16:11:10.772Z,5.22
2019-02-08T16:13:39.282Z,5.70
2019-02-08T16:16:07.744Z,6.47
2019-02-08T16:18:36.240Z,6.83
2019-02-08T16:21:04.811Z,8.75
2019-02-08T16:23:34.110Z,10.48
2019-02-08T16:26:02.308Z,7.72
2019-02-08T16:28:30.872Z,7.72
2019-02-08T16:30:59.247Z,6.60
2019-02-08T16:33:27.428Z,7.45
2019-02-08T16:35:55.923Z,8.88
2019-02-08T16:38:24.135Z,7.55
2019-02-08T16:40:53.573Z,8.27
2019-02-08T16:43:21.783Z,8.53
2019-02-08T16:45:49.965Z,16.20
2019-02-08T16:48:18.097Z,11.30
2019-02-08T16:50:46.548Z,9.78
2019-02-08T16:53:15.024Z,9.38
2019-02-08T16:55:44.454Z,8.85
2019-02-08T16:58:12.640Z,8.33
2019-02-08T17:00:41.853Z,8.45
2019-02-08T17:03:12.038Z,8.85
2019-02-08T17:05:40.267Z,9.17
2019-02-08T17:08:08.673Z,7.60
2019-02-08T17:10:37.220Z,7.53
2019-02-08T17:13:05.847Z,7.45
2019-02-08T17:15:34.149Z,7.08
2019-02-08T17:18:03.344Z,7.35
2019-02-08T17:20:36.540Z,8.55
2019-02-08T17:23:04.949Z,9.38
2019-02-08T17:25:33.397Z,8.80
2019-02-08T17:28:01.706Z,8.33
2019-02-08T17:30:30.253Z,9.18
2019-02-08T17:32:58.436Z,9.03
2019-02-08T17:35:26.722Z,9.25
2019-02-08T17:37:55.916Z,8.70
2019-02-08T17:40:26.293Z,9.53
2019-02-08T17:42:54.399Z,8.77
2019-02-08T17:45:23.218Z,9.15
2019-02-08T17:47:51.417Z,8.13
2019-02-08T17:50:23.738Z,7.13
2019-02-08T17:52:52.213Z,6.90
2019-02-08T17:55:21.640Z,5.65
2019-02-08T17:57:49.854Z,6.25
2019-02-08T18:00:21.840Z,6.55
2019-02-08T18:02:50.041Z,6.62
2019-02-08T18:05:18.188Z,5.50
2019-02-08T18:07:46.403Z,6.15
2019-02-08T18:10:17.379Z,9.68
2019-02-08T18:12:46.882Z,10.00
2019-02-08T18:15:17.333Z,7.45
2019-02-08T18:17:45.900Z,6.70
2019-02-08T18:20:23.249Z,6.00
2019-02-08T18:22:51.413Z,5.87
2019-02-08T18:25:20.045Z,5.70
2019-02-08T18:27:48.268Z,17.42
2019-02-08T18:30:19.496Z,6.62
2019-02-08T18:35:15.502Z,5.78
2019-02-08T18:37:44.036Z,4.97
2019-02-08T18:40:14.220Z,5.08
2019-02-08T18:42:42.817Z,5.13
2019-02-08T18:45:14.255Z,5.05
2019-02-08T18:47:42.440Z,5.92
2019-02-08T18:50:15.428Z,7.47
2019-02-08T18:52:43.627Z,5.22
2019-02-08T18:55:12.020Z,5.05
2019-02-08T18:57:40.172Z,5.30
2019-02-08T19:00:12.424Z,5.35
2019-02-08T19:02:40.670Z,5.37
2019-02-08T19:05:09.692Z,6.37
2019-02-08T19:07:37.891Z,6.33
2019-02-08T19:10:08.155Z,6.10
2019-02-08T19:12:36.256Z,5.70
2019-02-08T19:15:05.865Z,6.15
2019-02-08T19:17:34.069Z,5.08
2019-02-08T19:20:03.034Z,5.97
2019-02-08T19:22:31.202Z,6.30
2019-02-08T19:24:59.718Z,6.87
2019-02-08T19:27:27.828Z,6.87
2019-02-08T19:29:56.042Z,6.25
2019-02-08T19:32:24.247Z,7.12
2019-02-08T19:34:52.394Z,7.47
2019-02-08T19:37:20.528Z,6.30
2019-02-08T19:39:49.138Z,7.30
2019-02-08T19:42:18.831Z,6.25
2019-02-08T19:44:47.319Z,5.70
2019-02-08T19:47:17.739Z,6.30
2019-02-08T19:49:45.933Z,6.50
2019-02-08T19:52:15.130Z,6.10
2019-02-08T19:54:43.561Z,9.25
2019-02-08T19:57:12.237Z,6.28
2019-02-08T19:59:40.374Z,13.27
2019-02-08T20:02:09.564Z,7.15
2019-02-08T20:04:37.737Z,5.87
2019-02-08T20:07:10.204Z,5.90
2019-02-08T20:09:38.686Z,5.17
2019-02-08T20:12:06.862Z,5.35
2019-02-08T20:14:35.045Z,6.28
2019-02-08T20:17:03.216Z,6.78
2019-02-08T20:19:32.412Z,5.45
2019-02-08T20:22:00.592Z,6.10
2019-02-08T20:24:28.760Z,6.28
2019-02-08T20:26:56.934Z,6.10
2019-02-08T20:29:25.366Z,6.10
2019-02-08T20:31:53.606Z,6.78
2019-02-08T20:34:23.273Z,6.30
2019-02-08T20:36:52.480Z,6.17
2019-02-08T20:39:21.008Z,7.00
2019-02-08T20:41:49.147Z,5.95
2019-02-08T20:44:17.361Z,7.35
2019-02-08T20:46:45.499Z,6.58
2019-02-08T20:49:14.679Z,6.65
2019-02-08T20:51:42.863Z,5.83
2019-02-08T20:54:11.065Z,5.58
2019-02-08T20:56:39.583Z,6.13
2019-02-08T20:59:08.158Z,5.42
2019-02-08T21:01:36.649Z,6.28
2019-02-08T21:04:04.973Z,44.83
2019-02-08T21:06:33.417Z,5.53
2019-02-08T21:09:01.606Z,4.93
2019-02-08T21:11:31.092Z,5.40
2019-02-08T21:13:59.575Z,5.72
2019-02-08T21:16:28.721Z,4.83
2019-02-08T21:19:01.061Z,5.03
2019-02-08T21:21:29.283Z,5.65
2019-02-08T21:23:57.681Z,4.75
2019-02-08T21:26:26.211Z,5.00
2019-02-08T21:28:58.078Z,4.95
2019-02-08T21:31:22.829Z,5.37
2019-02-08T21:33:51.344Z,5.55
2019-02-08T21:36:20.608Z,4.03
2019-02-08T21:38:48.794Z,4.75
2019-02-08T21:41:16.989Z,5.20
2019-02-08T21:43:45.529Z,5.03
2019-02-08T21:46:14.429Z,4.12
2019-02-08T21:48:42.623Z,6.08
2019-02-08T21:51:10.775Z,5.33
2019-02-08T21:53:39.359Z,5.40
2019-02-08T21:56:07.559Z,5.60
2019-02-08T21:58:35.995Z,6.05
2019-02-08T22:01:04.505Z,6.37
2019-02-08T22:03:32.694Z,6.40
2019-02-08T22:06:02.819Z,6.60
2019-02-08T22:08:32.003Z,6.93
2019-02-08T22:11:00.546Z,6.20
2019-02-08T22:13:29.687Z,6.08
2019-02-08T22:15:58.929Z,6.20
2019-02-08T22:18:27.440Z,6.28
2019-02-08T22:20:55.635Z,6.10
2019-02-08T22:23:23.804Z,5.55
2019-02-08T22:25:52.347Z,5.22
2019-02-08T22:28:20.965Z,4.65
2019-02-08T22:30:49.516Z,4.53
2019-02-08T22:33:17.721Z,5.33
2019-02-08T22:35:45.853Z,4.90
2019-02-08T22:38:15.019Z,4.30
2019-02-08T22:40:43.168Z,4.40
2019-02-08T22:43:12.031Z,4.95
2019-02-08T22:45:42.218Z,4.50
2019-02-08T22:48:11.437Z,4.62
2019-02-08T22:50:39.543Z,4.20
2019-02-08T22:53:09.293Z,4.22
2019-02-08T22:55:37.466Z,4.33
2019-02-08T22:58:06.335Z,4.62
2019-02-08T23:01:11.022Z,4.47
2019-02-08T23:03:39.880Z,5.95
2019-02-08T23:06:08.248Z,4.93
2019-02-08T23:08:36.800Z,6.25
2019-02-08T23:11:05.209Z,5.45
2019-02-08T23:13:33.364Z,8.15
2019-02-08T23:16:02.019Z,9.38
2019-02-08T23:18:31.750Z,8.58
2019-02-08T23:21:00.245Z,9.08
2019-02-08T23:23:42.779Z,9.28
2019-02-08T23:26:14.397Z,8.80
2019-02-08T23:28:42.996Z,8.13
2019-02-08T23:31:11.156Z,5.95
2019-02-08T23:33:39.326Z,9.08
2019-02-08T23:36:15.812Z,6.30
2019-02-08T23:38:50.848Z,9.00
2019-02-08T23:41:19.017Z,9.43
2019-02-08T23:43:47.548Z,7.00
2019-02-08T23:46:15.776Z,7.65
2019-02-08T23:48:43.932Z,8.05
2019-02-08T23:51:12.114Z,5.55
2019-02-08T23:53:40.273Z,5.95
2019-02-08T23:56:08.849Z,8.45
2019-02-08T23:58:37.038Z,12.40
